Time;durP1;ratioP1;P1;durP2;ratioP2;P2;SDS_P1;SDS_P2;PMS_P1;PMS_P2;Temp;Humidity;BMP_temperature;BMP_pressure;BME280_temperature;BME280_humidity;BME280_pressure;Samples;Min_cycle;Max_cycle;Signal;HPM_P1;HPM_P2
2022/10/24 00:01:13;;;;;;;8.40;2.27;;;15.50;99.90;;;;;;5052396;28;20725;-61
2022/10/24 00:03:40;;;;;;;8.67;1.90;;;15.50;99.90;;;;;;5052522;28;20668;-61
2022/10/24 00:06:08;;;;;;;5.90;1.77;;;15.40;99.90;;;;;;5052444;28;20235;-61
2022/10/24 00:08:35;;;;;;;7.47;2.07;;;15.50;99.90;;;;;;5052478;28;20352;-64
2022/10/24 00:11:02;;;;;;;10.60;2.33;;;15.50;99.90;;;;;;5052212;28;20716;-61
2022/10/24 00:13:29;;;;;;;5.10;1.80;;;15.60;99.90;;;;;;5052162;28;20736;-61
2022/10/24 00:15:56;;;;;;;5.80;2.33;;;15.50;99.90;;;;;;5052034;28;20206;-61
2022/10/24 00:18:24;;;;;;;6.00;2.03;;;15.50;99.90;;;;;;5052120;28;20267;-61
2022/10/24 00:20:50;;;;;;;10.10;2.50;;;15.50;99.90;;;;;;5052489;28;20222;-61
2022/10/24 00:23:17;;;;;;;6.90;2.10;;;15.50;99.90;;;;;;5052315;28;20283;-61
2022/10/24 00:25:44;;;;;;;3.30;1.77;;;15.60;99.90;;;;;;5052164;28;20210;-61
2022/10/24 00:28:10;;;;;;;5.13;2.37;;;15.60;99.90;;;;;;5052077;28;20213;-61
2022/10/24 00:30:37;;;;;;;5.93;2.40;;;15.60;99.90;;;;;;5051849;28;20242;-61
2022/10/24 00:33:04;;;;;;;8.77;2.57;;;15.70;99.90;;;;;;5051962;28;20253;-61
2022/10/24 00:35:32;;;;;;;8.43;2.60;;;15.70;99.90;;;;;;5052248;28;20210;-61
2022/10/24 00:37:59;;;;;;;8.10;2.93;;;15.70;99.90;;;;;;5052961;28;20628;-61
2022/10/24 00:40:25;;;;;;;5.00;2.37;;;15.70;99.90;;;;;;5052580;28;20230;-61
2022/10/24 00:42:53;;;;;;;9.17;2.53;;;15.60;99.90;;;;;;5052002;28;20687;-61
2022/10/24 00:45:40;;;;;;;7.57;2.63;;;15.60;99.90;;;;;;5052201;28;20641;-61
2022/10/24 00:48:21;;;;;;;5.60;2.60;;;15.70;99.90;;;;;;5051884;28;20267;-61
2022/10/24 00:50:52;;;;;;;9.77;2.70;;;15.60;99.90;;;;;;5051765;28;20635;-61
2022/10/24 00:53:21;;;;;;;5.33;2.60;;;15.60;99.90;;;;;;5051688;28;20271;-61
2022/10/24 00:55:51;;;;;;;8.80;2.20;;;15.70;99.90;;;;;;5051606;28;20687;-61
2022/10/24 00:58:20;;;;;;;5.57;2.63;;;15.70;99.90;;;;;;5051583;28;20668;-61
2022/10/24 01:00:48;;;;;;;6.30;2.53;;;15.80;99.90;;;;;;5051611;28;20233;-58
2022/10/24 01:03:14;;;;;;;5.00;2.10;;;16.10;99.90;;;;;;5051796;28;20206;-61
2022/10/24 01:05:54;;;;;;;6.97;2.50;;;16.10;99.90;;;;;;5052241;28;20236;-61
2022/10/24 01:08:30;;;;;;;10.07;2.27;;;16.10;99.90;;;;;;5055654;28;20615;-61
2022/10/24 01:11:08;;;;;;;4.93;1.97;;;16.10;99.90;;;;;;5055635;28;20232;-61
2022/10/24 01:13:42;;;;;;;5.67;1.90;;;16.10;99.90;;;;;;5055725;28;20229;-61
2022/10/24 01:16:13;;;;;;;11.47;2.30;;;16.40;99.90;;;;;;5055290;28;20205;-61
2022/10/24 01:18:43;;;;;;;16.27;2.47;;;16.40;99.90;;;;;;5055753;28;20217;-61
2022/10/24 01:21:26;;;;;;;4.87;2.00;;;16.40;99.90;;;;;;5055575;28;20245;-61
2022/10/24 01:24:26;;;;;;;7.30;2.00;;;16.30;99.90;;;;;;5055467;28;20738;-61
2022/10/24 01:27:18;;;;;;;5.97;1.73;;;16.40;99.90;;;;;;5055079;28;20274;-61
2022/10/24 01:30:01;;;;;;;5.17;1.93;;;16.30;99.90;;;;;;5055183;28;20278;-61
2022/10/24 01:32:35;;;;;;;5.37;1.80;;;16.40;99.90;;;;;;5055676;28;20225;-61
2022/10/24 01:35:11;;;;;;;6.67;2.00;;;16.30;99.90;;;;;;5055151;28;20270;-61
2022/10/24 01:37:41;;;;;;;8.07;2.00;;;16.40;99.90;;;;;;5055209;28;20209;-61
2022/10/24 01:40:12;;;;;;;7.57;1.97;;;16.30;99.90;;;;;;5055136;28;20226;-61
2022/10/24 01:42:41;;;;;;;5.63;1.93;;;16.30;99.90;;;;;;5055206;28;20202;-61
2022/10/24 01:45:14;;;;;;;5.27;1.80;;;16.50;99.90;;;;;;5055173;28;20252;-61
2022/10/24 01:47:46;;;;;;;4.20;1.73;;;16.40;99.90;;;;;;5054860;28;20210;-61
2022/10/24 01:50:15;;;;;;;8.23;1.50;;;16.40;99.90;;;;;;5055208;28;20226;-61
2022/10/24 01:52:43;;;;;;;5.90;2.13;;;16.30;99.90;;;;;;5054926;28;20255;-61
2022/10/24 01:55:11;;;;;;;7.83;1.87;;;16.40;99.90;;;;;;5054824;28;20202;-60
2022/10/24 01:57:38;;;;;;;6.30;2.10;;;16.40;99.90;;;;;;5054573;28;20217;-61
2022/10/24 02:00:07;;;;;;;5.87;2.10;;;16.30;99.90;;;;;;5054611;28;20225;-61
2022/10/24 02:02:41;;;;;;;9.13;2.13;;;16.40;99.90;;;;;;5055072;28;20206;-61
2022/10/24 02:05:13;;;;;;;8.10;1.77;;;16.40;99.90;;;;;;5054784;28;20636;-61
2022/10/24 02:07:42;;;;;;;5.00;1.80;;;16.40;99.90;;;;;;5054482;28;20245;-61
2022/10/24 02:10:14;;;;;;;11.93;2.80;;;16.40;99.90;;;;;;5054580;28;20623;-60
2022/10/24 02:12:44;;;;;;;6.83;1.87;;;16.50;99.90;;;;;;5054335;28;20272;-61
2022/10/24 02:15:15;;;;;;;5.43;2.00;;;16.40;99.90;;;;;;5054613;28;20267;-61
2022/10/24 02:17:43;;;;;;;4.47;1.83;;;16.40;99.90;;;;;;5053006;28;20625;-61
2022/10/24 02:20:11;;;;;;;8.50;2.17;;;16.30;99.90;;;;;;5054355;28;20644;-61
2022/10/24 02:22:45;;;;;;;6.03;1.83;;;16.30;99.90;;;;;;5054456;28;20209;-61
2022/10/24 02:25:20;;;;;;;6.57;2.40;;;16.30;99.90;;;;;;5054276;28;20300;-61
2022/10/24 02:27:49;;;;;;;4.53;1.50;;;16.30;99.90;;;;;;5054388;28;20205;-61
2022/10/24 02:30:18;;;;;;;8.17;1.80;;;16.30;99.90;;;;;;5053995;28;20774;-61
2022/10/24 02:32:49;;;;;;;6.30;2.00;;;16.40;99.90;;;;;;5054203;28;20573;-61
2022/10/24 02:35:18;;;;;;;4.90;1.80;;;16.40;99.90;;;;;;5053975;28;20212;-61
2022/10/24 02:37:48;;;;;;;9.00;1.47;;;16.50;99.90;;;;;;5054153;28;20263;-61
2022/10/24 02:40:17;;;;;;;8.60;1.80;;;16.50;99.90;;;;;;5054362;28;20237;-61
2022/10/24 02:42:47;;;;;;;6.40;2.10;;;16.50;99.90;;;;;;5054139;28;20240;-61
2022/10/24 02:45:17;;;;;;;5.23;1.53;;;16.50;99.90;;;;;;5053873;28;20688;-61
2022/10/24 02:47:48;;;;;;;5.20;1.60;;;16.60;99.90;;;;;;5053774;28;20259;-61
2022/10/24 02:50:15;;;;;;;6.40;1.60;;;16.60;99.90;;;;;;5053851;28;20696;-61
2022/10/24 02:52:43;;;;;;;5.50;2.10;;;16.60;99.90;;;;;;5053922;28;20225;-62
2022/10/24 02:55:11;;;;;;;7.93;1.77;;;16.60;99.90;;;;;;5053640;28;20699;-62
2022/10/24 02:57:38;;;;;;;6.87;1.63;;;16.60;99.90;;;;;;5053586;28;20649;-61
2022/10/24 03:00:06;;;;;;;5.63;1.67;;;16.70;99.90;;;;;;5053604;28;20221;-61
2022/10/24 03:02:33;;;;;;;6.17;1.43;;;16.60;99.90;;;;;;5053610;28;20201;-61
2022/10/24 03:05:01;;;;;;;7.37;1.83;;;16.60;99.90;;;;;;5053746;28;20210;-61
2022/10/24 03:07:28;;;;;;;5.27;1.80;;;16.80;91.50;;;;;;5053448;28;20244;-61
2022/10/24 03:09:54;;;;;;;4.93;1.30;;;16.80;95.00;;;;;;5053937;28;20225;-61
2022/10/24 03:12:21;;;;;;;6.03;1.70;;;16.80;93.50;;;;;;5053328;28;20206;-61
2022/10/24 03:14:48;;;;;;;8.83;1.70;;;16.60;98.90;;;;;;5053482;28;20213;-61
2022/10/24 03:17:15;;;;;;;5.43;1.27;;;16.70;99.90;;;;;;5053004;28;20205;-61
2022/10/24 03:19:41;;;;;;;5.83;1.50;;;16.60;99.90;;;;;;5053274;28;20229;-61
2022/10/24 03:22:09;;;;;;;3.33;1.43;;;16.60;99.90;;;;;;5053271;28;20209;-61
2022/10/24 03:24:36;;;;;;;9.40;1.63;;;16.60;99.90;;;;;;5053296;28;20198;-61
2022/10/24 03:27:03;;;;;;;4.73;1.63;;;16.60;99.90;;;;;;5052910;28;20629;-61
2022/10/24 03:29:29;;;;;;;5.27;1.67;;;16.60;99.90;;;;;;5052567;28;20634;-61
2022/10/24 03:31:56;;;;;;;7.57;1.60;;;16.50;99.90;;;;;;5053155;28;20734;-61
2022/10/24 03:34:23;;;;;;;3.03;1.30;;;16.40;99.90;;;;;;5052819;28;20727;-62
2022/10/24 03:36:49;;;;;;;4.97;1.93;;;16.50;99.90;;;;;;5052922;28;20205;-61
2022/10/24 03:39:17;;;;;;;3.00;1.17;;;16.50;99.90;;;;;;5052709;28;20276;-61
2022/10/24 03:41:44;;;;;;;5.97;1.60;;;16.50;99.90;;;;;;5052698;28;20597;-61
2022/10/24 03:44:11;;;;;;;8.60;1.90;;;16.50;99.90;;;;;;5052767;28;20205;-61
2022/10/24 03:46:37;;;;;;;8.43;1.70;;;16.40;99.90;;;;;;5052658;28;20284;-61
2022/10/24 03:49:04;;;;;;;10.57;2.30;;;16.40;99.90;;;;;;5052807;28;20264;-61
2022/10/24 03:51:30;;;;;;;6.67;1.80;;;16.40;99.90;;;;;;5052745;28;20722;-61
2022/10/24 03:53:57;;;;;;;9.43;2.13;;;16.40;99.90;;;;;;5052677;28;20222;-61
2022/10/24 03:56:25;;;;;;;5.73;1.80;;;16.30;99.90;;;;;;5052334;28;20259;-61
2022/10/24 03:58:52;;;;;;;4.37;1.90;;;16.30;99.90;;;;;;5052411;28;20733;-61
2022/10/24 04:01:19;;;;;;;3.10;1.63;;;16.30;99.90;;;;;;5052263;28;20777;-61
2022/10/24 04:03:46;;;;;;;5.70;1.60;;;16.30;99.90;;;;;;5052540;28;20210;-61
2022/10/24 04:06:13;;;;;;;5.17;1.37;;;16.30;99.90;;;;;;5052288;28;20213;-61
2022/10/24 04:08:40;;;;;;;8.00;1.73;;;16.40;99.90;;;;;;5052366;28;20260;-61
2022/10/24 04:11:07;;;;;;;2.37;1.50;;;16.40;99.90;;;;;;5052091;28;20283;-61
2022/10/24 04:13:35;;;;;;;5.73;1.87;;;16.20;99.90;;;;;;5052410;28;20639;-61
2022/10/24 04:16:02;;;;;;;3.47;1.30;;;16.20;99.90;;;;;;5051991;28;20633;-61
2022/10/24 04:18:29;;;;;;;4.07;1.20;;;16.20;99.90;;;;;;5052140;28;20217;-61
2022/10/24 04:20:55;;;;;;;8.47;1.73;;;16.20;99.90;;;;;;5052080;28;20708;-61
2022/10/24 04:23:22;;;;;;;3.60;1.50;;;16.20;99.90;;;;;;5052136;28;20243;-61
2022/10/24 04:25:48;;;;;;;6.17;1.50;;;16.10;99.90;;;;;;5052026;28;20209;-61
2022/10/24 04:28:15;;;;;;;4.57;1.67;;;16.10;99.90;;;;;;5052078;28;20264;-61
2022/10/24 04:30:43;;;;;;;8.53;1.73;;;16.10;99.90;;;;;;5052284;28;20229;-61
2022/10/24 04:33:10;;;;;;;6.87;1.57;;;16.00;99.90;;;;;;5052003;28;20244;-61
2022/10/24 04:35:37;;;;;;;8.80;1.70;;;16.10;99.90;;;;;;5051872;28;20676;-61
2022/10/24 04:38:04;;;;;;;3.30;1.20;;;16.00;99.90;;;;;;5051433;28;20210;-61
2022/10/24 04:40:30;;;;;;;3.87;1.50;;;16.00;99.90;;;;;;5050069;28;20264;-61
2022/10/24 04:42:57;;;;;;;7.43;1.60;;;15.90;99.90;;;;;;5051871;28;20213;-61
2022/10/24 04:45:24;;;;;;;4.43;1.50;;;15.90;99.90;;;;;;5049962;28;20210;-61
2022/10/24 04:47:52;;;;;;;5.40;1.80;;;16.00;99.90;;;;;;5050408;28;20255;-61
2022/10/24 04:50:18;;;;;;;9.47;1.60;;;15.90;99.90;;;;;;5051346;28;20234;-61
2022/10/24 04:52:45;;;;;;;6.37;1.60;;;15.90;99.90;;;;;;5051082;28;20213;-61
2022/10/24 04:55:12;;;;;;;4.43;1.50;;;16.00;99.90;;;;;;5051149;28;20664;-61
2022/10/24 04:57:38;;;;;;;5.70;1.70;;;15.80;99.90;;;;;;5051142;28;20209;-61
2022/10/24 05:00:07;;;;;;;5.43;1.40;;;15.80;99.90;;;;;;5051508;28;20259;-61
2022/10/24 05:02:33;;;;;;;4.50;1.30;;;15.70;99.90;;;;;;5051271;28;20205;-61
2022/10/24 05:05:01;;;;;;;4.70;1.50;;;15.80;99.90;;;;;;5051401;28;20205;-61
2022/10/24 05:07:28;;;;;;;4.97;1.60;;;15.80;99.90;;;;;;5050975;28;20247;-61
2022/10/24 05:09:55;;;;;;;9.10;1.80;;;15.80;99.90;;;;;;5051172;28;20226;-62
2022/10/24 05:12:21;;;;;;;4.50;1.50;;;15.80;99.90;;;;;;5051567;28;20264;-61
2022/10/24 05:14:48;;;;;;;3.13;1.40;;;15.80;99.90;;;;;;5051108;28;20259;-62
2022/10/24 05:17:15;;;;;;;4.87;1.33;;;15.70;99.90;;;;;;5051150;28;20201;-61
2022/10/24 05:19:42;;;;;;;2.33;1.13;;;15.70;99.90;;;;;;5051033;28;20777;-64
2022/10/24 05:22:10;;;;;;;7.40;1.43;;;15.70;99.90;;;;;;5050949;28;20255;-64
2022/10/24 05:24:36;;;;;;;6.10;1.77;;;15.60;99.90;;;;;;5050564;28;20567;-61
2022/10/24 05:27:03;;;;;;;3.87;1.90;;;15.70;99.90;;;;;;5050951;28;20641;-61
2022/10/24 05:29:30;;;;;;;4.43;1.37;;;15.60;99.90;;;;;;5051135;28;20642;-62
2022/10/24 05:31:56;;;;;;;4.57;1.07;;;15.60;99.90;;;;;;5051145;28;20256;-62
2022/10/24 05:34:23;;;;;;;8.53;2.00;;;15.60;99.90;;;;;;5051346;28;20279;-61
2022/10/24 05:36:50;;;;;;;3.87;1.67;;;15.60;99.90;;;;;;5050106;28;20775;-62
2022/10/24 05:39:18;;;;;;;9.43;1.50;;;15.60;99.90;;;;;;5051369;28;20210;-61
2022/10/24 05:41:45;;;;;;;1.77;1.33;;;15.60;99.90;;;;;;5050648;28;20769;-62
2022/10/24 05:44:11;;;;;;;3.43;1.30;;;15.50;99.90;;;;;;5050953;28;20205;-62
2022/10/24 05:46:38;;;;;;;3.80;1.20;;;15.60;99.90;;;;;;5049756;28;20765;-58
2022/10/24 05:49:05;;;;;;;8.43;1.63;;;15.50;99.90;;;;;;5050920;28;20209;-60
2022/10/24 05:51:32;;;;;;;3.80;1.53;;;15.50;99.90;;;;;;5051226;28;20287;-61
2022/10/24 05:53:59;;;;;;;8.40;1.27;;;15.50;99.90;;;;;;5054736;28;20229;-59
2022/10/24 05:56:27;;;;;;;10.80;1.60;;;15.50;99.90;;;;;;5053881;28;20209;-62
2022/10/24 05:58:56;;;;;;;1.80;1.10;;;15.50;99.90;;;;;;5054834;28;20209;-60
2022/10/24 06:01:23;;;;;;;3.37;1.00;;;15.50;99.90;;;;;;5034353;28;20283;-59
2022/10/24 06:03:49;;;;;;;5.37;1.30;;;15.60;99.90;;;;;;5040923;28;20202;-58
2022/10/24 06:06:17;;;;;;;2.17;1.20;;;15.60;99.90;;;;;;5052830;28;20645;-62
2022/10/24 06:08:43;;;;;;;3.30;1.07;;;15.60;99.90;;;;;;5053428;28;20205;-61
2022/10/24 06:11:11;;;;;;;4.70;1.33;;;15.60;99.90;;;;;;5053946;28;20275;-61
2022/10/24 06:13:39;;;;;;;4.03;1.30;;;15.60;99.90;;;;;;5053578;28;20221;-61
2022/10/24 06:16:06;;;;;;;6.23;1.33;;;15.50;99.90;;;;;;5053047;28;20237;-61
2022/10/24 06:18:33;;;;;;;4.27;1.20;;;15.60;99.90;;;;;;5052732;28;20704;-61
2022/10/24 06:21:00;;;;;;;5.43;1.20;;;15.60;99.90;;;;;;5054068;28;20230;-60
2022/10/24 06:23:27;;;;;;;4.10;1.23;;;15.60;99.90;;;;;;5053953;28;20209;-60
2022/10/24 06:25:53;;;;;;;3.27;1.13;;;15.70;99.90;;;;;;5052719;28;20210;-60
2022/10/24 06:28:20;;;;;;;3.73;1.23;;;15.60;99.90;;;;;;5053326;28;20264;-60
2022/10/24 06:30:49;;;;;;;5.80;1.33;;;15.60;99.90;;;;;;5053178;28;20272;-59
2022/10/24 06:33:16;;;;;;;3.07;1.10;;;15.60;99.90;;;;;;5053634;28;20348;-60
2022/10/24 06:35:43;;;;;;;4.43;0.97;;;15.60;98.70;;;;;;5052866;28;20206;-61
2022/10/24 06:38:09;;;;;;;6.57;1.53;;;15.60;99.10;;;;;;5052658;28;20202;-64
2022/10/24 06:40:38;;;;;;;3.97;1.27;;;15.70;96.90;;;;;;5052858;28;20774;-62
2022/10/24 06:43:05;;;;;;;5.47;1.40;;;15.70;97.00;;;;;;5053291;28;20635;-62
2022/10/24 06:45:32;;;;;;;3.30;0.90;;;15.80;92.10;;;;;;5052857;28;20215;-61
2022/10/24 06:48:00;;;;;;;3.33;1.00;;;15.60;97.80;;;;;;5052535;28;20210;-62
2022/10/24 06:50:28;;;;;;;2.63;1.00;;;15.70;99.70;;;;;;5053338;28;20229;-62
2022/10/24 06:52:54;;;;;;;3.07;1.07;;;15.70;94.50;;;;;;5052970;28;20255;-62
2022/10/24 06:55:21;;;;;;;2.63;1.00;;;15.80;94.90;;;;;;5052809;28;20232;-62
2022/10/24 06:57:48;;;;;;;3.57;0.90;;;15.70;99.90;;;;;;5052280;28;20268;-65
2022/10/24 07:00:15;;;;;;;4.13;1.17;;;15.80;95.80;;;;;;5052621;28;20237;-66
2022/10/24 07:02:42;;;;;;;10.73;1.30;;;15.80;97.60;;;;;;5051316;28;20829;-64
2022/10/24 07:05:11;;;;;;;4.90;1.20;;;15.80;94.50;;;;;;5052107;28;20228;-63
2022/10/24 07:07:38;;;;;;;5.17;1.10;;;15.70;96.00;;;;;;5052596;28;20668;-61
2022/10/24 07:10:06;;;;;;;4.30;1.03;;;15.70;99.90;;;;;;5052432;28;20225;-61
2022/10/24 07:12:33;;;;;;;2.67;1.17;;;15.70;99.90;;;;;;5052802;28;20205;-63
2022/10/24 07:15:00;;;;;;;3.37;1.30;;;15.70;99.90;;;;;;5052320;28;20226;-62
2022/10/24 07:17:26;;;;;;;9.37;1.33;;;15.80;99.90;;;;;;5052419;28;20202;-63
2022/10/24 07:19:54;;;;;;;7.93;1.10;;;15.70;99.90;;;;;;5049876;28;20217;-63
2022/10/24 07:22:22;;;;;;;4.10;1.20;;;15.80;99.90;;;;;;5050946;28;20201;-63
2022/10/24 07:24:52;;;;;;;2.30;1.00;;;15.90;99.90;;;;;;5052056;28;20298;-63
2022/10/24 07:27:19;;;;;;;3.97;1.20;;;16.00;96.60;;;;;;5051985;28;20263;-62
2022/10/24 07:29:46;;;;;;;4.60;1.20;;;16.00;93.10;;;;;;5052309;28;20230;-62
2022/10/24 07:32:13;;;;;;;2.77;0.93;;;16.00;84.80;;;;;;5052107;28;20240;-64
2022/10/24 07:34:40;;;;;;;4.27;1.10;;;16.00;96.10;;;;;;5052249;28;20619;-65
2022/10/24 07:37:07;;;;;;;3.23;1.20;;;16.10;93.10;;;;;;5051574;28;20270;-65
2022/10/24 07:39:36;;;;;;;4.63;1.10;;;16.10;92.70;;;;;;5051982;28;20210;-68
2022/10/24 07:42:03;;;;;;;5.67;1.10;;;16.10;93.80;;;;;;5052179;28;20205;-65
2022/10/24 07:44:30;;;;;;;6.07;0.90;;;16.20;94.20;;;;;;5052370;28;20213;-65
2022/10/24 07:46:56;;;;;;;5.17;0.90;;;16.20;88.10;;;;;;5051611;28;20297;-66
2022/10/24 07:49:23;;;;;;;1.93;1.10;;;16.20;93.20;;;;;;5051932;28;20780;-63
2022/10/24 07:51:50;;;;;;;3.93;1.10;;;16.10;94.80;;;;;;5052245;28;20213;-62
2022/10/24 07:54:16;;;;;;;5.77;1.20;;;16.20;92.70;;;;;;5051435;28;20218;-63
2022/10/24 07:56:44;;;;;;;4.57;1.00;;;16.20;90.40;;;;;;5051589;28;20214;-62
2022/10/24 07:59:11;;;;;;;4.53;1.07;;;16.40;85.40;;;;;;5051391;28;20206;-61
2022/10/24 08:01:38;;;;;;;6.60;1.00;;;16.30;93.20;;;;;;5052279;28;20230;-61
2022/10/24 08:04:04;;;;;;;9.03;1.30;;;16.40;70.10;;;;;;5051348;28;20621;-61
2022/10/24 08:06:32;;;;;;;4.10;1.07;;;16.30;86.90;;;;;;5051154;28;20206;-62
2022/10/24 08:08:59;;;;;;;4.23;1.00;;;16.20;90.20;;;;;;5051900;28;20217;-62
2022/10/24 08:11:27;;;;;;;2.83;0.80;;;16.20;90.90;;;;;;5051507;28;20230;-62
2022/10/24 08:13:56;;;;;;;6.67;1.40;;;16.20;90.50;;;;;;5050465;28;20206;-61
2022/10/24 08:16:24;;;;;;;2.90;1.20;;;16.30;90.10;;;;;;5050774;28;20641;-62
2022/10/24 08:18:53;;;;;;;3.03;1.00;;;16.50;76.90;;;;;;5051532;28;20205;-62
2022/10/24 08:21:21;;;;;;;4.17;0.80;;;16.50;64.50;;;;;;5050952;28;20248;-61
2022/10/24 08:23:50;;;;;;;7.60;1.17;;;16.60;62.00;;;;;;5052429;28;20241;-62
2022/10/24 08:26:20;;;;;;;6.63;1.20;;;16.60;78.00;;;;;;5050442;28;20206;-62
2022/10/24 08:28:47;;;;;;;6.80;1.23;;;16.60;52.00;;;;;;5051289;28;20597;-61
2022/10/24 08:31:17;;;;;;;5.50;1.13;;;16.60;63.30;;;;;;5051303;28;20225;-62
2022/10/24 08:33:44;;;;;;;3.87;1.03;;;16.70;71.00;;;;;;5050628;28;20209;-62
2022/10/24 08:36:17;;;;;;;9.00;1.33;;;16.70;61.00;;;;;;5050813;28;20238;-62
2022/10/24 08:38:44;;;;;;;3.00;0.70;;;16.80;47.90;;;;;;5050592;28;20209;-63
2022/10/24 08:41:22;;;;;;;5.37;1.30;;;16.90;35.80;;;;;;5051191;28;20232;-62
2022/10/24 08:43:48;;;;;;;5.23;1.20;;;16.90;34.70;;;;;;5050878;28;20206;-63
2022/10/24 08:46:33;;;;;;;5.23;1.50;;;16.80;43.00;;;;;;5050343;28;20274;-62
2022/10/24 08:49:04;;;;;;;7.93;1.10;;;16.80;37.70;;;;;;5050701;28;20218;-60
2022/10/24 08:51:39;;;;;;;4.90;1.10;;;16.70;38.70;;;;;;5051233;28;20225;-61
2022/10/24 08:54:09;;;;;;;3.10;1.03;;;16.70;41.20;;;;;;5050231;28;20208;-61
2022/10/24 08:56:36;;;;;;;6.77;1.20;;;16.70;29.60;;;;;;5050283;28;20205;-61
2022/10/24 08:59:04;;;;;;;4.97;1.47;;;16.60;56.80;;;;;;5051209;28;20213;-61
2022/10/24 09:01:39;;;;;;;4.67;1.00;;;16.50;55.10;;;;;;5050666;28;20613;-62
2022/10/24 09:04:09;;;;;;;2.30;1.00;;;16.60;44.40;;;;;;5050679;28;20205;-61
2022/10/24 09:06:37;;;;;;;4.10;1.27;;;16.60;59.40;;;;;;5049921;28;20695;-62
2022/10/24 09:09:09;;;;;;;6.73;1.67;;;16.50;63.20;;;;;;5050920;28;20197;-60
2022/10/24 09:11:46;;;;;;;2.27;1.10;;;16.50;61.40;;;;;;5050500;28;20287;-62
2022/10/24 09:14:15;;;;;;;4.00;1.03;;;16.50;65.30;;;;;;5048355;28;20209;-60
2022/10/24 09:16:45;;;;;;;5.30;1.23;;;16.50;54.70;;;;;;5037930;28;20244;-60
2022/10/24 09:19:15;;;;;;;3.90;1.00;;;16.50;71.90;;;;;;5051173;28;20738;-60
2022/10/24 09:21:44;;;;;;;9.40;1.63;;;16.40;61.30;;;;;;5050298;28;20229;-60
2022/10/24 09:24:24;;;;;;;6.83;1.57;;;16.40;70.40;;;;;;5050558;28;20638;-60
2022/10/24 09:26:50;;;;;;;7.43;1.40;;;16.40;68.40;;;;;;5050979;28;20623;-61
2022/10/24 09:29:17;;;;;;;5.87;1.30;;;16.40;59.60;;;;;;5054197;28;20221;-61
2022/10/24 09:31:48;;;;;;;4.63;1.37;;;16.40;70.90;;;;;;5054678;28;20227;-60
2022/10/24 09:34:15;;;;;;;6.53;1.30;;;16.50;59.20;;;;;;5053861;28;20209;-62
2022/10/24 09:36:42;;;;;;;6.43;1.27;;;16.50;55.10;;;;;;5054255;28;20210;-62
2022/10/24 09:39:26;;;;;;;2.43;1.00;;;16.60;58.70;;;;;;5054340;28;20259;-62
2022/10/24 09:41:53;;;;;;;3.80;0.87;;;16.60;73.50;;;;;;5052543;28;20236;-62
2022/10/24 09:44:38;;;;;;;5.00;1.50;;;16.60;59.10;;;;;;5052556;28;20206;-62
2022/10/24 09:47:21;;;;;;;4.70;1.30;;;16.60;57.20;;;;;;5054062;28;20254;-61
2022/10/24 09:49:48;;;;;;;5.30;1.10;;;16.50;42.60;;;;;;5053997;28;20229;-61
2022/10/24 09:52:19;;;;;;;3.13;1.03;;;16.50;43.30;;;;;;5055265;28;20205;-62
2022/10/24 09:54:47;;;;;;;4.37;1.00;;;16.50;53.10;;;;;;5050750;28;20267;-63
2022/10/24 09:57:17;;;;;;;2.83;1.00;;;16.50;74.30;;;;;;5048164;28;20657;-61
2022/10/24 09:59:45;;;;;;;4.07;1.10;;;16.60;54.10;;;;;;5054022;28;20739;-62
2022/10/24 10:02:23;;;;;;;5.03;1.17;;;16.60;52.50;;;;;;5053553;28;20213;-62
2022/10/24 10:05:08;;;;;;;5.90;0.93;;;16.60;78.30;;;;;;5054205;28;20237;-62
2022/10/24 10:07:36;;;;;;;8.60;1.47;;;16.80;49.60;;;;;;5032610;28;20213;-61
2022/10/24 10:10:06;;;;;;;7.03;1.20;;;16.90;36.70;;;;;;5034242;28;20233;-61
2022/10/24 10:12:36;;;;;;;9.20;1.30;;;16.90;36.70;;;;;;5049568;28;20267;-62
2022/10/24 10:15:17;;;;;;;4.07;1.00;;;16.90;28.30;;;;;;5054495;28;20221;-62
2022/10/24 10:17:51;;;;;;;4.00;1.13;;;16.90;27.50;;;;;;5053163;28;20672;-63
2022/10/24 10:20:24;;;;;;;5.60;1.33;;;17.00;46.00;;;;;;5052318;28;20234;-63
2022/10/24 10:22:50;;;;;;;7.53;1.13;;;17.10;31.60;;;;;;5054030;28;20643;-63
2022/10/24 10:25:30;;;;;;;3.60;0.90;;;17.10;30.40;;;;;;5053468;28;20206;-63
2022/10/24 10:27:57;;;;;;;6.37;1.50;;;17.10;20.10;;;;;;5052211;28;20210;-61
2022/10/24 10:30:24;;;;;;;4.77;1.10;;;17.00;38.60;;;;;;5052501;28;20324;-66
2022/10/24 10:33:05;;;;;;;8.17;1.30;;;17.00;12.50;;;;;;5053789;28;20205;-57
2022/10/24 10:35:39;;;;;;;4.40;1.20;;;17.00;19.40;;;;;;5053180;28;20317;-62
2022/10/24 10:38:19;;;;;;;4.70;1.23;;;17.00;23.20;;;;;;5052147;28;20201;-62
2022/10/24 10:40:52;;;;;;;5.63;1.50;;;17.00;32.00;;;;;;5052356;28;20225;-62
2022/10/24 10:43:29;;;;;;;6.93;1.27;;;17.10;36.10;;;;;;5052610;28;20209;-62
2022/10/24 10:46:13;;;;;;;9.77;1.33;;;17.20;28.60;;;;;;5052302;28;20675;-62
2022/10/24 10:48:55;;;;;;;8.93;1.63;;;17.30;30.40;;;;;;5047808;28;20202;-61
2022/10/24 10:51:34;;;;;;;8.10;1.27;;;17.20;7.60;;;;;;5048637;28;20847;-61
2022/10/24 10:54:12;;;;;;;9.03;1.40;;;17.30;15.30;;;;;;5051159;28;20278;-62
2022/10/24 10:56:48;;;;;;;5.73;1.47;;;17.30;17.30;;;;;;5052301;28;20229;-62
2022/10/24 10:59:38;;;;;;;4.50;1.17;;;17.30;9.00;;;;;;5051984;28;20210;-62
2022/10/24 11:02:25;;;;;;;7.43;1.63;;;17.30;1.00;;;;;;5051219;28;20210;-62
2022/10/24 11:04:58;;;;;;;8.93;2.13;;;17.20;1.00;;;;;;5052481;28;20255;-62
2022/10/24 11:07:34;;;;;;;8.33;1.30;;;17.20;1.00;;;;;;5052636;28;20212;-63
2022/10/24 11:10:04;;;;;;;6.47;1.43;;;17.20;1.10;;;;;;5052898;28;20233;-62
2022/10/24 11:12:35;;;;;;;13.03;1.50;;;17.20;1.00;;;;;;5052809;28;20264;-61
2022/10/24 11:15:07;;;;;;;6.70;1.40;;;17.20;1.00;;;;;;5052893;28;20205;-61
2022/10/24 11:17:41;;;;;;;4.90;1.10;;;17.30;1.00;;;;;;5031946;28;20206;-61
2022/10/24 11:20:17;;;;;;;7.93;1.43;;;17.20;7.90;;;;;;5032601;28;20735;-59
2022/10/24 11:22:48;;;;;;;6.07;1.20;;;17.00;34.00;;;;;;5032164;28;20217;-64
2022/10/24 11:25:23;;;;;;;6.43;1.40;;;17.10;45.30;;;;;;5042478;28;20206;-62
2022/10/24 11:27:57;;;;;;;3.10;1.13;;;16.90;44.70;;;;;;5051816;28;20213;-59
2022/10/24 11:30:42;;;;;;;4.10;0.93;;;16.90;51.30;;;;;;5052392;28;20233;-59
2022/10/24 11:33:16;;;;;;;3.53;1.20;;;17.00;35.00;;;;;;5052112;28;20205;-59
2022/10/24 11:36:08;;;;;;;3.93;1.27;;;17.00;17.20;;;;;;5052282;28;20233;-59
2022/10/24 11:38:40;;;;;;;5.53;1.23;;;17.10;26.30;;;;;;5048341;28;20300;-62
2022/10/24 11:41:29;;;;;;;4.67;1.43;;;17.20;21.90;;;;;;5052449;28;20291;-63
2022/10/24 11:43:58;;;;;;;5.67;1.30;;;17.30;23.20;;;;;;5052066;28;20214;-64
2022/10/24 11:46:32;;;;;;;4.73;1.20;;;17.30;12.70;;;;;;5051698;28;20687;-64
2022/10/24 11:49:03;;;;;;;8.37;1.53;;;17.30;5.60;;;;;;5052364;28;20213;-64
2022/10/24 11:51:37;;;;;;;7.23;1.17;;;17.30;1.00;;;;;;5051803;28;20229;-64
2022/10/24 11:54:11;;;;;;;7.07;1.40;;;17.20;1.00;;;;;;5049984;28;20214;-63
2022/10/24 11:56:42;;;;;;;10.07;1.50;;;17.30;1.00;;;;;;5044688;28;20294;-64
2022/10/24 11:59:15;;;;;;;7.10;1.23;;;17.30;1.00;;;;;;5052422;28;20209;-61
2022/10/24 12:01:51;;;;;;;4.47;1.07;;;17.20;1.00;;;;;;5051580;28;20228;-62
2022/10/24 12:04:47;;;;;;;5.23;1.07;;;17.20;10.70;;;;;;5051810;28;20259;-62
2022/10/24 12:07:42;;;;;;;6.70;1.30;;;17.10;16.00;;;;;;5051194;28;20331;-66
2022/10/24 12:10:29;;;;;;;7.63;1.20;;;17.20;14.20;;;;;;5051497;28;20774;-64
2022/10/24 12:13:30;;;;;;;3.83;1.00;;;17.20;4.20;;;;;;5051143;28;20209;-64
2022/10/24 12:16:03;;;;;;;7.23;1.47;;;17.20;1.00;;;;;;5051065;28;20233;-65
2022/10/24 12:18:33;;;;;;;6.77;1.17;;;17.20;1.00;;;;;;5051076;28;20708;-65
2022/10/24 12:21:04;;;;;;;5.13;1.27;;;17.10;11.40;;;;;;5051679;28;20233;-62
2022/10/24 12:23:32;;;;;;;8.10;1.13;;;17.00;1.00;;;;;;5050985;28;20726;-64
2022/10/24 12:26:04;;;;;;;6.73;1.20;;;17.10;8.50;;;;;;5051026;28;20673;-62
2022/10/24 12:28:32;;;;;;;6.37;1.13;;;17.10;4.70;;;;;;5050676;28;20205;-63
2022/10/24 12:31:19;;;;;;;8.57;1.17;;;17.00;1.00;;;;;;5051380;28;20256;-63
2022/10/24 12:33:47;;;;;;;6.43;1.23;;;17.00;45.40;;;;;;5046725;28;20201;-64
2022/10/24 12:36:14;;;;;;;7.27;1.13;;;16.90;63.70;;;;;;5050639;28;20232;-62
2022/10/24 12:39:10;;;;;;;7.80;1.50;;;16.70;83.80;;;;;;5051361;28;20205;-62
2022/10/24 12:41:42;;;;;;;6.70;1.50;;;16.50;99.90;;;;;;5050638;28;20308;-64
2022/10/24 12:44:39;;;;;;;6.20;1.20;;;16.40;99.90;;;;;;5051075;28;20217;-64
2022/10/24 12:47:34;;;;;;;11.77;1.80;;;16.40;99.90;;;;;;5049778;28;20230;-62
2022/10/24 12:50:34;;;;;;;4.90;1.43;;;16.30;99.90;;;;;;5046547;28;20235;-64
2022/10/24 12:53:31;;;;;;;8.23;1.30;;;16.20;99.90;;;;;;5051004;28;20292;-62
2022/10/24 12:56:17;;;;;;;4.97;1.27;;;16.40;99.90;;;;;;5050556;28;20594;-63
2022/10/24 12:58:55;;;;;;;8.37;1.30;;;16.40;99.90;;;;;;5051396;28;20209;-61
2022/10/24 13:01:26;;;;;;;7.37;1.33;;;16.50;99.90;;;;;;5050593;28;20261;-61
2022/10/24 13:04:22;;;;;;;7.97;1.57;;;16.50;99.90;;;;;;5050708;28;20255;-62
2022/10/24 13:07:03;;;;;;;7.07;1.40;;;16.50;99.90;;;;;;5050314;28;20665;-62